Weather Models
Both GFS & NAM
00z 06z 12z 18z
24hr Precip
00z 06z 12z 18z
36hr Simulated radar
00z 06z 12z 18z
SKEWT Soundings
00z 12z
Current Conditions (Updated 11:30am on 11/18/19)
Temperature
 44°
1.56
44°  
39°  
0
10
20
30
40
50
60
70
80
90
100
Dew Point
35°
36°  
26°  
-20
-10
0
10
20
30
40
50
60
70
80
Wind Chill
37°
43°  
30°  
-20
-10
0
10
20
30
40
50
60
70
80
Wind Chill
Humidity
72%
78% 
59% 
0
10
20
30
40
50
60
70
80
90
100
Barometer
29.84
   Falling
30.01  
29.84  
28.00
28.30
28.60
28.90
29.20
29.50
29.80
30.10
30.40
30.70
31.00
Temperature
Dew Point
Humidity
Pressure
Wind
13mph
  N
Daily Rain
.00
.05
.10
.15
.20
.25
.30
.35
.40
.45
.50
Rain Today
 0.00" 
Month Rain
0.00
0.20
0.40
0.60
0.80
1.00
1.20
1.40
1.60
1.80
2.00
Month Rain
 0.48" 
Year Rain
0.00
5.00
10.00
15.00
20.00
25.00
30.00
35.00
40.00
45.00
50.00
Year Rain
 47.04" 
Sun & Moon Data
Sunrise 6:49am
Sunset 4:43pm
Moonrise 10:24pm
Moonset 12:18pm
Moon % 72%
Other Rain Data
Past Hour 0.00 Past 24 Hours 0.00
Past 3 Hours 0.00 Past 7 Days 0.14
Past 6 Hours 0.00
Cloud Height
2105


Current Front Map
Current Satellite map
7 Day Forecast

Warning: strpos(): Offset not contained in string in /home/jcweat2/public_html/forcast_multi.php on line 678
NWS Forecast for

Forecast blank? Force Update

National Weather Service Forecast for:
Issued by:
Updated:

Philadelphia
 

 

 

Forecast from NOAA-NWS for .

Area Weather Current Conditions
Nearby METAR Reports

KPHL - Philadelphia, Pennsylvania
Updated: Wed, 20-Nov-2019 5:54pm EST
Mostly Cloudy
Mostly Cloudy
 Wind from NW
Wind: NW 10 mph , 17 km/h
Temperature: 46°F , 8°C
Wind Chill: 41°F , 5°C
Dew Point: 30°F , -1°C
Humidity: 53%
Barometer: 30.09 inHg , 1019 hPa
Clouds: Mostly Cloudy
Visibility: 10 miles , 16 km
Cloud details: Few Clouds 5500 ft
Mostly Cloudy 8000 ft
2019/11/20 22:54 KPHL 202254Z 32009KT 10SM FEW055 BKN080 08/M01 A3009 RMK AO2 SLP188 T00831011 $
KMPO - Mt. Pocono, Pennsylvania
Updated: Wed, 20-Nov-2019 5:53pm EST
Overcast
Overcast
 Wind from WNW
Wind: WNW 18 mph , 30 km/h, Gust: 32 mph , 52 km/h
Temperature: 36°F , 2°C
Wind Chill: 26°F , -3°C
Dew Point: 30°F , -1°C
Humidity: 81%
Barometer: 30.01 inHg , 1016.3 hPa
Clouds: Overcast
Visibility: 10 miles , 16 km
Cloud details: Mostly Cloudy 2100 ft
Overcast 2700 ft
2019/11/20 22:53 KMPO 202253Z AUTO 30016G28KT 10SM BKN021 OVC027 02/M01 A3001 RMK AO2 PK WND 31029/2219 SLP180 T00221006 $
 
KACY - Atlantic City, New Jersey
Updated: Wed, 20-Nov-2019 5:54pm EST
Overcast
Overcast
 Wind from NNW
Wind: NNW 9 mph , 15 km/h
Temperature: 46°F , 8°C
Wind Chill: 41°F , 5°C
Dew Point: 32°F , 0°C
Humidity: 57%
Barometer: 30.06 inHg , 1017.9 hPa
Clouds: Overcast
Visibility: 10 miles , 16 km
Cloud details: Overcast 7000 ft
2019/11/20 22:54 KACY 202254Z 33008KT 10SM OVC070 08/00 A3006 RMK AO2 SLP179 T00780000
KMIV - Millville, New Jersey
Updated: Wed, 20-Nov-2019 5:54pm EST
Overcast
Overcast
 Wind from NW
Wind: NW 9 mph , 15 km/h
Temperature: 48°F , 9°C
Wind Chill: 44°F , 7°C
Dew Point: 30°F , -1°C
Humidity: 50%
Barometer: 30.07 inHg , 1018.3 hPa
Clouds: Overcast
Visibility: 10 miles , 16 km
Cloud details: Overcast 7500 ft
2019/11/20 22:54 KMIV 202254Z AUTO 31008KT 10SM OVC075 09/M01 A3007 RMK AO2 SLP182 T00891006
 
KWWD - Wildwood, New Jersey
Updated: Wed, 20-Nov-2019 5:56pm EST
Mostly Cloudy
Mostly Cloudy
 Wind from NW
Wind: NW 12 mph , 19 km/h, Gust: 23 mph , 37 km/h
Temperature: 48°F , 9°C
Wind Chill: 43°F , 6°C
Dew Point: 36°F , 2°C
Humidity: 62%
Barometer: 30.08 inHg , 1018.6 hPa
Clouds: Mostly Cloudy
Visibility: 10 miles , 16 km
Cloud details: Partly Cloudy 5000 ft
Mostly Cloudy 8000 ft
2019/11/20 22:56 KWWD 202256Z AUTO 31010G20KT 10SM SCT050 BKN080 09/02 A3008 RMK AO2 SLP188 T00890022
KDOV - Dover Afb, Delaware
Updated: Wed, 20-Nov-2019 5:56pm EST
Mostly Cloudy
Mostly Cloudy
 Wind from WNW
Wind: WNW 13 mph , 20 km/h
Temperature: 50°F , 10°C
Wind Chill: 45°F , 7°C
Dew Point: 32°F , 0°C
Humidity: 50%
Barometer: 30.08 inHg , 1018.6 hPa
Clouds: Mostly Cloudy
Visibility: 10 miles , 16 km
Cloud details: Mostly Cloudy 5000 ft
2019/11/20 22:56 KDOV 202256Z 30011KT 10SM BKN050 10/00 A3008 RMK AO2A SLP189 T00961003 $
Severe Weather Map